createdAt,value
2022-11-26T00:00:22.537Z,22.3
2022-11-26T00:01:24.483Z,22.3
2022-11-26T00:02:27.483Z,22.3
2022-11-26T00:03:30.947Z,22.3
2022-11-26T00:04:33.603Z,22.3
2022-11-26T00:05:36.122Z,22.3
2022-11-26T00:06:38.302Z,22.3
2022-11-26T00:07:40.107Z,22.3
2022-11-26T00:08:42.635Z,22.3
2022-11-26T00:09:45.116Z,22.3
2022-11-26T00:10:47.588Z,22.3
2022-11-26T00:11:50.075Z,22.3
2022-11-26T00:12:52.297Z,22.3
2022-11-26T00:13:54.848Z,22.4
2022-11-26T00:14:57.397Z,22.4
2022-11-26T00:15:59.895Z,22.4
2022-11-26T00:17:02.578Z,22.4
2022-11-26T00:18:05.294Z,22.4
2022-11-26T00:19:07.475Z,22.4
2022-11-26T00:20:09.401Z,22.4
2022-11-26T00:21:11.606Z,22.4
2022-11-26T00:22:13.810Z,22.4
2022-11-26T00:23:16.007Z,22.4
2022-11-26T00:24:18.498Z,22.4
2022-11-26T00:25:20.966Z,22.4
2022-11-26T00:26:23.451Z,22.4
2022-11-26T00:27:25.650Z,22.4
2022-11-26T00:28:28.160Z,22.4
2022-11-26T00:29:30.667Z,22.4
2022-11-26T00:30:32.881Z,22.4
2022-11-26T00:31:35.612Z,22.4
2022-11-26T00:32:38.314Z,22.4
2022-11-26T00:33:40.851Z,22.4
2022-11-26T00:34:43.057Z,22.5
2022-11-26T00:35:45.241Z,22.5
2022-11-26T00:36:47.719Z,22.5
2022-11-26T00:37:49.374Z,22.5
2022-11-26T00:38:51.571Z,22.5
2022-11-26T00:39:53.772Z,22.5
2022-11-26T00:40:56.244Z,22.5
2022-11-26T00:41:58.717Z,22.5
2022-11-26T00:43:02.921Z,22.5
2022-11-26T00:44:05.463Z,22.5
2022-11-26T00:45:07.731Z,22.6
2022-11-26T00:46:10.220Z,22.5
2022-11-26T00:47:12.886Z,22.5
2022-11-26T00:48:15.086Z,22.5
2022-11-26T00:49:17.595Z,22.5
2022-11-26T00:50:19.802Z,22.5
2022-11-26T00:51:22.007Z,22.5
2022-11-26T00:52:24.491Z,22.5
2022-11-26T00:53:26.978Z,22.5
2022-11-26T00:54:29.455Z,22.5
2022-11-26T00:55:31.979Z,22.5
2022-11-26T00:57:39.438Z,22.5
2022-11-26T00:58:41.934Z,22.5
2022-11-26T00:59:44.441Z,22.6
2022-11-26T01:00:47.118Z,22.6
2022-11-26T01:01:49.983Z,22.6
2022-11-26T01:02:52.649Z,22.6
2022-11-26T01:03:55.144Z,22.6
2022-11-26T01:04:57.366Z,22.6
2022-11-26T01:05:59.869Z,22.6
2022-11-26T01:07:02.354Z,22.6
2022-11-26T01:08:04.551Z,22.6
2022-11-26T01:09:06.758Z,22.6
2022-11-26T01:10:08.943Z,22.6
2022-11-26T01:11:11.411Z,22.6
2022-11-26T01:12:13.340Z,22.6
2022-11-26T01:13:15.871Z,22.6
2022-11-26T01:14:18.360Z,22.6
2022-11-26T01:15:20.869Z,22.6
2022-11-26T01:16:23.619Z,22.6
2022-11-26T01:17:26.004Z,22.6
2022-11-26T01:18:28.276Z,22.6
2022-11-26T01:19:30.477Z,22.6
2022-11-26T01:20:32.974Z,22.6
2022-11-26T01:21:35.459Z,22.6
2022-11-26T01:22:37.388Z,22.6
2022-11-26T01:23:39.866Z,22.6
2022-11-26T01:24:41.842Z,22.6
2022-11-26T01:25:44.333Z,22.6
2022-11-26T01:26:46.257Z,22.6
2022-11-26T01:27:48.436Z,22.6
2022-11-26T01:28:50.374Z,22.6
2022-11-26T01:29:52.847Z,22.7
2022-11-26T01:30:55.368Z,22.7
2022-11-26T01:31:58.122Z,22.7
2022-11-26T01:33:00.804Z,22.7
2022-11-26T01:34:03.441Z,22.7
2022-11-26T01:35:05.465Z,22.7
2022-11-26T01:36:07.681Z,22.7
2022-11-26T01:37:10.153Z,22.7
2022-11-26T01:38:12.066Z,22.6
2022-11-26T01:39:14.290Z,22.6
2022-11-26T01:40:16.487Z,22.6
2022-11-26T01:41:18.986Z,22.6
2022-11-26T01:42:21.462Z,22.6
2022-11-26T01:43:23.948Z,22.6
2022-11-26T01:44:26.453Z,22.6
2022-11-26T01:45:28.586Z,22.6
2022-11-26T01:46:30.996Z,22.6
2022-11-26T01:47:33.508Z,22.6
2022-11-26T01:48:35.978Z,22.6
2022-11-26T01:49:38.492Z,22.6
2022-11-26T01:50:40.980Z,22.7
2022-11-26T01:51:43.499Z,22.7
2022-11-26T01:52:45.697Z,22.7
2022-11-26T01:53:47.880Z,22.7
2022-11-26T01:54:50.078Z,22.7
2022-11-26T01:55:52.547Z,22.7
2022-11-26T01:56:54.470Z,22.7
2022-11-26T01:57:56.672Z,22.7
2022-11-26T01:58:58.878Z,22.7
2022-11-26T02:00:01.381Z,22.7
2022-11-26T02:01:04.156Z,22.7
2022-11-26T02:02:07.088Z,22.7
2022-11-26T02:03:09.481Z,22.7
2022-11-26T02:04:11.973Z,22.7
2022-11-26T02:05:14.478Z,22.6
2022-11-26T02:06:16.682Z,22.6
2022-11-26T02:07:19.207Z,22.6
2022-11-26T02:08:21.316Z,22.6
2022-11-26T02:09:23.799Z,22.6
2022-11-26T02:10:26.294Z,22.6
2022-11-26T02:11:28.775Z,22.6
2022-11-26T02:12:30.698Z,22.7
2022-11-26T02:13:32.902Z,22.7
2022-11-26T02:14:35.406Z,22.7
2022-11-26T02:15:38.805Z,22.7
2022-11-26T02:16:41.407Z,22.7
2022-11-26T02:17:43.732Z,22.7
2022-11-26T02:18:46.248Z,22.7
2022-11-26T02:19:48.455Z,22.7
2022-11-26T02:20:50.673Z,22.7
2022-11-26T02:21:53.146Z,22.7
2022-11-26T02:22:55.370Z,22.7
2022-11-26T02:23:57.851Z,22.7
2022-11-26T02:25:00.337Z,22.7
2022-11-26T02:26:02.822Z,22.7
2022-11-26T02:27:05.018Z,22.7
2022-11-26T02:28:07.225Z,22.7
2022-11-26T02:29:09.132Z,22.7
2022-11-26T02:30:11.332Z,22.7
2022-11-26T02:31:14.062Z,22.7
2022-11-26T02:32:16.382Z,22.7
2022-11-26T02:33:18.882Z,22.7
2022-11-26T02:34:21.412Z,22.7
2022-11-26T02:35:23.586Z,22.7
2022-11-26T02:36:25.833Z,22.7
2022-11-26T02:37:28.018Z,22.7
2022-11-26T02:38:30.524Z,22.7
2022-11-26T02:39:32.733Z,22.7
2022-11-26T02:40:35.246Z,22.7
2022-11-26T02:41:37.723Z,22.7
2022-11-26T02:42:39.925Z,22.7
2022-11-26T02:43:42.402Z,22.7
2022-11-26T02:44:44.943Z,22.7
2022-11-26T02:45:47.714Z,22.8
2022-11-26T02:46:50.316Z,22.8
2022-11-26T02:47:52.812Z,22.8
2022-11-26T02:48:55.103Z,22.8
2022-11-26T02:49:57.621Z,22.8
2022-11-26T02:51:00.115Z,22.8
2022-11-26T02:52:02.637Z,22.8
2022-11-26T02:53:05.119Z,22.8
2022-11-26T02:54:07.355Z,22.7
2022-11-26T02:55:09.298Z,22.7
2022-11-26T02:56:11.803Z,22.7
2022-11-26T02:57:13.696Z,22.7
2022-11-26T02:58:16.177Z,22.7
2022-11-26T02:59:18.654Z,22.7
2022-11-26T03:00:21.139Z,22.7
2022-11-26T03:01:23.771Z,22.7
2022-11-26T03:02:26.451Z,22.7
2022-11-26T03:03:28.822Z,22.7
2022-11-26T03:04:31.195Z,22.7
2022-11-26T03:05:33.709Z,22.7
2022-11-26T03:06:36.194Z,22.8
2022-11-26T03:07:38.465Z,22.8
2022-11-26T03:08:41.096Z,22.8
2022-11-26T03:09:43.593Z,22.8
2022-11-26T03:10:45.798Z,22.8
2022-11-26T03:11:48.208Z,22.8
2022-11-26T03:12:50.968Z,22.8
2022-11-26T03:13:53.860Z,22.8
2022-11-26T03:14:56.348Z,22.8
2022-11-26T03:15:58.803Z,22.8
2022-11-26T03:17:01.153Z,22.8
2022-11-26T03:18:03.360Z,22.8
2022-11-26T03:19:05.557Z,22.8
2022-11-26T03:20:07.216Z,22.8
2022-11-26T03:21:09.459Z,22.7
2022-11-26T03:22:11.939Z,22.7
2022-11-26T03:23:14.442Z,22.7
2022-11-26T03:24:16.664Z,22.7
2022-11-26T03:25:19.178Z,22.7
2022-11-26T03:26:21.646Z,22.7
2022-11-26T03:27:24.120Z,22.7
2022-11-26T03:28:26.605Z,22.7
2022-11-26T03:29:29.087Z,22.7
2022-11-26T03:30:31.563Z,22.8
2022-11-26T03:31:33.885Z,22.8
2022-11-26T03:32:36.315Z,22.8
2022-11-26T03:33:38.541Z,22.8
2022-11-26T03:34:41.731Z,22.8
2022-11-26T03:35:43.991Z,22.8
2022-11-26T03:36:45.988Z,22.8
2022-11-26T03:37:47.913Z,22.8
2022-11-26T03:38:50.411Z,22.8
2022-11-26T03:39:52.983Z,22.8
2022-11-26T03:40:55.487Z,22.8
2022-11-26T03:41:57.703Z,22.8
2022-11-26T03:43:00.224Z,22.8
2022-11-26T03:44:02.424Z,22.8
2022-11-26T03:45:04.909Z,22.8
2022-11-26T03:46:07.535Z,22.7
2022-11-26T03:47:09.877Z,22.7
2022-11-26T03:48:12.072Z,22.7
2022-11-26T03:49:14.000Z,22.7
2022-11-26T03:50:16.212Z,22.7
2022-11-26T03:51:18.429Z,22.7
2022-11-26T03:52:20.967Z,22.7
2022-11-26T03:53:23.162Z,22.8
2022-11-26T03:54:25.647Z,22.8
2022-11-26T03:55:28.125Z,22.8
2022-11-26T03:56:30.637Z,22.8
2022-11-26T03:57:33.128Z,22.8
2022-11-26T03:58:35.608Z,22.8
2022-11-26T03:59:38.086Z,22.8
2022-11-26T04:00:40.282Z,22.8
2022-11-26T04:01:43.034Z,22.8
2022-11-26T04:02:45.557Z,22.8
2022-11-26T04:03:48.177Z,22.8
2022-11-26T04:04:50.655Z,22.8
2022-11-26T04:05:52.858Z,22.8
2022-11-26T04:06:54.816Z,22.8
2022-11-26T04:07:57.529Z,22.8
2022-11-26T04:08:59.763Z,22.7
2022-11-26T04:10:02.010Z,22.7
2022-11-26T04:11:04.504Z,22.7
2022-11-26T04:12:07.004Z,22.7
2022-11-26T04:13:09.180Z,22.7
2022-11-26T04:14:11.660Z,22.7
2022-11-26T04:15:13.864Z,22.7
2022-11-26T04:16:16.261Z,22.7
2022-11-26T04:17:18.880Z,22.7
2022-11-26T04:18:21.360Z,22.7
2022-11-26T04:19:23.844Z,22.6
2022-11-26T04:20:26.025Z,22.6
2022-11-26T04:21:27.932Z,22.6
2022-11-26T04:22:30.431Z,22.6
2022-11-26T04:23:32.673Z,22.6
2022-11-26T04:24:34.879Z,22.6
2022-11-26T04:25:38.192Z,22.6
2022-11-26T04:26:40.663Z,22.6
2022-11-26T04:27:43.157Z,22.6
2022-11-26T04:28:45.634Z,22.6
2022-11-26T04:29:47.535Z,22.6
2022-11-26T04:30:49.738Z,22.6
2022-11-26T04:31:52.477Z,22.6
2022-11-26T04:32:55.206Z,22.6
2022-11-26T04:33:57.399Z,22.6
2022-11-26T04:34:59.915Z,22.6
2022-11-26T04:36:02.383Z,22.6
2022-11-26T04:37:04.885Z,22.6
2022-11-26T04:38:07.431Z,22.5
2022-11-26T04:39:09.979Z,22.5
2022-11-26T04:40:11.911Z,22.5
2022-11-26T04:41:13.863Z,22.5
2022-11-26T04:42:16.341Z,22.6
2022-11-26T04:43:18.864Z,22.5
2022-11-26T04:44:21.071Z,22.5
2022-11-26T04:45:23.573Z,22.5
2022-11-26T04:46:25.222Z,22.5
2022-11-26T04:47:27.393Z,22.5
2022-11-26T04:48:29.674Z,22.5
2022-11-26T04:49:31.597Z,22.5
2022-11-26T04:50:33.811Z,22.5
2022-11-26T04:51:35.985Z,22.5
2022-11-26T04:52:38.482Z,22.5
2022-11-26T04:53:40.988Z,22.5
2022-11-26T04:54:43.518Z,22.5
2022-11-26T04:55:46.002Z,22.5
2022-11-26T04:56:48.508Z,22.5
2022-11-26T04:57:50.980Z,22.5
2022-11-26T04:58:53.474Z,22.5
2022-11-26T04:59:55.954Z,22.5
2022-11-26T05:00:58.598Z,22.5
2022-11-26T05:02:01.062Z,22.5
2022-11-26T05:03:03.532Z,22.5
2022-11-26T05:04:05.971Z,22.5
2022-11-26T05:05:07.624Z,22.5
2022-11-26T05:06:10.116Z,22.5
2022-11-26T05:07:12.716Z,22.5
2022-11-26T05:08:15.280Z,22.5
2022-11-26T05:09:17.535Z,22.5
2022-11-26T05:10:20.044Z,22.5
2022-11-26T05:11:22.233Z,22.5
2022-11-26T05:12:24.809Z,22.5
2022-11-26T05:13:27.296Z,22.5
2022-11-26T05:14:29.815Z,22.5
2022-11-26T05:15:32.297Z,22.5
2022-11-26T05:16:34.749Z,22.5
2022-11-26T05:17:37.582Z,22.5
2022-11-26T05:18:39.812Z,22.5
2022-11-26T05:19:42.015Z,22.5
2022-11-26T05:20:44.489Z,22.5
2022-11-26T05:21:46.971Z,22.5
2022-11-26T05:22:48.895Z,22.5
2022-11-26T05:23:51.381Z,22.5
2022-11-26T05:24:53.614Z,22.5
2022-11-26T05:25:56.141Z,22.5
2022-11-26T05:26:58.622Z,22.5
2022-11-26T05:28:01.107Z,22.5
2022-11-26T05:29:03.346Z,22.5
2022-11-26T05:30:05.630Z,22.5
2022-11-26T05:31:07.556Z,22.5
2022-11-26T05:32:10.265Z,22.5
2022-11-26T05:33:12.743Z,22.5
2022-11-26T05:34:14.944Z,22.5
2022-11-26T05:35:17.139Z,22.4
2022-11-26T05:36:19.612Z,22.4
2022-11-26T05:37:22.098Z,22.5
2022-11-26T05:38:23.725Z,22.4
2022-11-26T05:39:26.205Z,22.5
2022-11-26T05:40:28.428Z,22.5
2022-11-26T05:41:30.657Z,22.5
2022-11-26T05:42:32.857Z,22.5
2022-11-26T05:43:35.355Z,22.4
2022-11-26T05:44:39.110Z,22.4
2022-11-26T05:45:42.896Z,22.4
2022-11-26T05:46:45.571Z,22.4
2022-11-26T05:47:47.825Z,22.4
2022-11-26T05:48:50.310Z,22.4
2022-11-26T05:49:52.247Z,22.4
2022-11-26T05:50:55.653Z,22.4
2022-11-26T05:51:58.125Z,22.4
2022-11-26T05:53:00.624Z,22.4
2022-11-26T05:54:03.103Z,22.4
2022-11-26T05:55:05.575Z,22.4
2022-11-26T05:56:07.807Z,22.4
2022-11-26T05:57:10.059Z,22.4
2022-11-26T05:58:12.531Z,22.4
2022-11-26T05:59:15.028Z,22.4
2022-11-26T06:00:17.231Z,22.4
2022-11-26T06:01:19.462Z,22.4
2022-11-26T06:02:22.497Z,22.4
2022-11-26T06:03:25.750Z,22.4
2022-11-26T06:04:28.225Z,22.4
2022-11-26T06:05:30.421Z,22.4
2022-11-26T06:06:32.627Z,22.4
2022-11-26T06:07:34.775Z,22.4
2022-11-26T06:08:40.985Z,22.4
2022-11-26T06:09:43.180Z,22.4
2022-11-26T06:10:45.654Z,22.4
2022-11-26T06:11:47.617Z,22.4
2022-11-26T06:12:50.123Z,22.4
2022-11-26T06:13:52.596Z,22.4
2022-11-26T06:14:55.104Z,22.4
2022-11-26T06:15:57.588Z,22.4
2022-11-26T06:17:00.509Z,22.4
2022-11-26T06:18:03.150Z,22.4
2022-11-26T06:19:05.372Z,22.4
2022-11-26T06:20:07.837Z,22.4
2022-11-26T06:21:10.310Z,22.4
2022-11-26T06:22:12.238Z,22.4
2022-11-26T06:23:14.471Z,22.4
2022-11-26T06:24:16.644Z,22.4
2022-11-26T06:25:18.554Z,22.4
2022-11-26T06:26:21.027Z,22.4
2022-11-26T06:27:23.532Z,22.4
2022-11-26T06:28:26.056Z,22.4
2022-11-26T06:29:29.386Z,22.4
2022-11-26T06:30:31.902Z,22.4
2022-11-26T06:31:34.689Z,22.4
2022-11-26T06:32:37.419Z,22.4
2022-11-26T06:33:39.899Z,22.4
2022-11-26T06:35:47.097Z,22.4
2022-11-26T06:36:49.571Z,22.4
2022-11-26T06:37:52.040Z,22.4
2022-11-26T06:38:53.952Z,22.4
2022-11-26T06:39:56.424Z,22.4
2022-11-26T06:40:58.330Z,22.4
2022-11-26T06:42:00.801Z,22.4
2022-11-26T06:43:03.303Z,22.4
2022-11-26T06:44:05.820Z,22.4
2022-11-26T06:45:08.313Z,22.4
2022-11-26T06:46:11.068Z,22.4
2022-11-26T06:47:13.782Z,22.4
2022-11-26T06:48:15.739Z,22.4
2022-11-26T06:49:17.937Z,22.4
2022-11-26T06:50:20.411Z,22.4
2022-11-26T06:51:22.590Z,22.4
2022-11-26T06:52:24.807Z,22.3
2022-11-26T06:53:27.003Z,22.4
2022-11-26T06:54:28.921Z,22.4
2022-11-26T06:55:31.398Z,22.4
2022-11-26T06:56:33.333Z,22.4
2022-11-26T06:57:35.511Z,22.4
2022-11-26T06:58:38.049Z,22.4
2022-11-26T06:59:40.609Z,22.4
2022-11-26T07:00:43.090Z,22.4
2022-11-26T07:01:44.977Z,22.4
2022-11-26T07:02:47.626Z,22.4
2022-11-26T07:03:50.420Z,22.4
2022-11-26T07:04:52.902Z,22.3
2022-11-26T07:05:55.379Z,22.3
2022-11-26T07:06:57.864Z,22.3
2022-11-26T07:08:00.348Z,22.3
2022-11-26T07:09:02.836Z,22.3
2022-11-26T07:10:05.308Z,22.4
2022-11-26T07:11:07.791Z,22.3
2022-11-26T07:12:09.980Z,22.4
2022-11-26T07:13:12.478Z,22.4
2022-11-26T07:14:14.711Z,22.4
2022-11-26T07:15:17.233Z,22.4
2022-11-26T07:16:19.902Z,22.3
2022-11-26T07:17:22.513Z,22.3
2022-11-26T07:18:24.709Z,22.3
2022-11-26T07:19:27.224Z,22.3
2022-11-26T07:20:29.872Z,22.3
2022-11-26T07:21:32.091Z,22.3
2022-11-26T07:22:34.289Z,22.3
2022-11-26T07:23:36.225Z,22.3
2022-11-26T07:24:39.822Z,22.3
2022-11-26T07:25:42.846Z,22.3
2022-11-26T07:26:44.780Z,22.3
2022-11-26T07:27:47.285Z,22.3
2022-11-26T07:28:49.862Z,22.3
2022-11-26T07:29:52.386Z,22.3
2022-11-26T07:30:55.025Z,22.3
2022-11-26T07:31:57.620Z,22.3
2022-11-26T07:33:00.385Z,22.3
2022-11-26T07:34:02.864Z,22.3
2022-11-26T07:35:05.094Z,22.3
2022-11-26T07:36:07.030Z,22.3
2022-11-26T07:37:09.516Z,22.3
2022-11-26T07:38:11.420Z,22.3
2022-11-26T07:39:13.334Z,22.3
2022-11-26T07:40:15.552Z,22.3
2022-11-26T07:41:17.770Z,22.3
2022-11-26T07:42:20.304Z,22.3
2022-11-26T07:43:22.542Z,22.3
2022-11-26T07:44:25.034Z,22.3
2022-11-26T07:45:27.534Z,22.3
2022-11-26T07:46:30.022Z,22.3
2022-11-26T07:47:32.196Z,22.3
2022-11-26T07:48:34.707Z,22.3
2022-11-26T07:49:36.915Z,22.3
2022-11-26T07:50:39.416Z,22.3
2022-11-26T07:51:41.362Z,22.3
2022-11-26T07:52:43.834Z,22.3
2022-11-26T07:53:45.774Z,22.3
2022-11-26T07:54:48.253Z,22.3
2022-11-26T07:55:50.453Z,22.3
2022-11-26T07:56:52.404Z,22.3
2022-11-26T07:57:54.878Z,22.3
2022-11-26T07:58:57.368Z,22.3
2022-11-26T07:59:59.843Z,22.3
2022-11-26T08:01:02.240Z,22.3
2022-11-26T08:02:05.170Z,22.3
2022-11-26T08:03:07.532Z,22.3
2022-11-26T08:04:09.459Z,22.3
2022-11-26T08:05:11.391Z,22.3
2022-11-26T08:06:13.896Z,22.3
2022-11-26T08:08:21.365Z,22.3
2022-11-26T08:09:23.586Z,22.3
2022-11-26T08:10:25.792Z,22.3
2022-11-26T08:11:27.410Z,22.3
2022-11-26T08:12:29.926Z,22.3
2022-11-26T08:13:32.415Z,22.3
2022-11-26T08:14:34.895Z,22.3
2022-11-26T08:15:37.498Z,22.3
2022-11-26T08:16:40.029Z,22.3
2022-11-26T08:17:42.592Z,22.3
2022-11-26T08:18:44.521Z,22.3
2022-11-26T08:19:46.752Z,22.3
2022-11-26T08:20:48.975Z,22.3
2022-11-26T08:21:51.481Z,22.3
2022-11-26T08:22:53.704Z,22.3
2022-11-26T08:23:56.188Z,22.3
2022-11-26T08:24:58.395Z,22.3
2022-11-26T08:27:05.583Z,22.3
2022-11-26T08:28:07.788Z,22.3
2022-11-26T08:29:09.995Z,22.3
2022-11-26T08:30:11.643Z,22.3
2022-11-26T08:31:14.325Z,22.3
2022-11-26T08:32:17.058Z,22.3
2022-11-26T08:33:19.583Z,22.3
2022-11-26T08:34:21.528Z,22.3
2022-11-26T08:36:29.013Z,22.3
2022-11-26T08:37:31.521Z,22.3
2022-11-26T08:38:33.723Z,22.3
2022-11-26T08:39:35.930Z,22.3
2022-11-26T08:40:38.133Z,22.3
2022-11-26T08:41:40.363Z,22.3
2022-11-26T08:42:42.570Z,22.3
2022-11-26T08:44:49.761Z,22.3
2022-11-26T08:45:52.109Z,22.3
2022-11-26T08:46:54.402Z,22.3
2022-11-26T08:47:56.361Z,22.3
2022-11-26T08:48:58.607Z,22.3
2022-11-26T08:50:01.088Z,22.3
2022-11-26T08:51:03.337Z,22.3
2022-11-26T08:52:05.556Z,22.3
2022-11-26T08:53:08.069Z,22.3
2022-11-26T08:54:10.632Z,22.3
2022-11-26T08:55:12.602Z,22.3
2022-11-26T08:56:14.825Z,22.3
2022-11-26T08:57:17.346Z,22.3
2022-11-26T08:58:19.827Z,22.3
2022-11-26T08:59:22.311Z,22.3
2022-11-26T09:00:24.663Z,22.3
2022-11-26T09:01:27.084Z,22.3
2022-11-26T09:02:29.581Z,22.3
2022-11-26T09:03:32.092Z,22.3
2022-11-26T09:04:34.653Z,22.3
2022-11-26T09:05:37.144Z,22.3
2022-11-26T09:06:39.378Z,22.3
2022-11-26T09:08:46.864Z,22.3
2022-11-26T09:09:49.055Z,22.3
2022-11-26T09:10:50.970Z,22.3
2022-11-26T09:11:53.197Z,22.3
2022-11-26T09:12:55.698Z,22.2
2022-11-26T09:13:58.190Z,22.3
2022-11-26T09:15:00.959Z,22.3
2022-11-26T09:16:03.585Z,22.2
2022-11-26T09:17:06.146Z,22.3
2022-11-26T09:18:08.649Z,22.2
2022-11-26T09:19:11.161Z,22.2
2022-11-26T09:20:13.685Z,22.2
2022-11-26T09:21:16.153Z,22.2
2022-11-26T09:22:18.390Z,22.2
2022-11-26T09:23:20.601Z,22.2
2022-11-26T09:24:23.118Z,22.2
2022-11-26T09:25:25.628Z,22.2
2022-11-26T09:26:28.096Z,22.2
2022-11-26T09:27:30.028Z,22.2
2022-11-26T09:28:32.231Z,22.2
2022-11-26T09:29:34.718Z,22.2
2022-11-26T09:30:37.205Z,22.2
2022-11-26T09:32:44.794Z,22.2
2022-11-26T09:33:47.388Z,22.2
2022-11-26T09:34:50.023Z,22.2
2022-11-26T09:35:52.003Z,22.2
2022-11-26T09:36:54.497Z,22.2
2022-11-26T09:37:56.710Z,22.2
2022-11-26T09:38:58.641Z,22.2
2022-11-26T09:40:01.162Z,22.2
2022-11-26T09:41:03.376Z,22.2
2022-11-26T09:42:05.612Z,22.2
2022-11-26T09:43:08.114Z,22.2
2022-11-26T09:44:10.310Z,22.2
2022-11-26T09:45:12.796Z,22.2
2022-11-26T09:46:15.486Z,22.2
2022-11-26T09:47:17.899Z,22.2
2022-11-26T09:48:20.377Z,22.2
2022-11-26T09:49:22.867Z,22.2
2022-11-26T09:50:25.081Z,22.2
2022-11-26T09:51:27.319Z,22.2
2022-11-26T09:52:29.530Z,22.2
2022-11-26T09:53:31.771Z,22.2
2022-11-26T09:54:34.257Z,22.2
2022-11-26T09:55:36.502Z,22.2
2022-11-26T09:56:38.835Z,22.2
2022-11-26T09:57:41.320Z,22.2
2022-11-26T09:58:43.807Z,22.2
2022-11-26T09:59:45.738Z,22.2
2022-11-26T10:00:48.378Z,22.2
2022-11-26T10:01:50.841Z,22.2
2022-11-26T10:02:52.890Z,22.2
2022-11-26T10:03:55.389Z,22.2
2022-11-26T10:04:57.591Z,22.2
2022-11-26T10:05:59.817Z,22.2
2022-11-26T10:07:02.349Z,22.2
2022-11-26T10:08:04.286Z,22.2
2022-11-26T10:09:06.801Z,22.2
2022-11-26T10:10:08.932Z,22.2
2022-11-26T10:11:10.916Z,22.2
2022-11-26T10:13:20.737Z,22.2
2022-11-26T10:14:23.243Z,22.2
2022-11-26T10:15:25.461Z,22.2
2022-11-26T10:16:28.172Z,22.2
2022-11-26T10:17:30.239Z,22.2
2022-11-26T10:18:32.425Z,22.2
2022-11-26T10:19:34.374Z,22.2
2022-11-26T10:20:36.581Z,22.2
2022-11-26T10:22:43.800Z,22.2
2022-11-26T10:23:46.341Z,22.2
2022-11-26T10:24:48.387Z,22.2
2022-11-26T10:25:50.874Z,22.2
2022-11-26T10:26:53.393Z,22.2
2022-11-26T10:27:55.033Z,22.2
2022-11-26T10:28:57.509Z,22.2
2022-11-26T10:29:59.147Z,22.2
2022-11-26T10:31:01.355Z,22.2
2022-11-26T10:32:04.056Z,22.2
2022-11-26T10:33:06.001Z,22.2
2022-11-26T10:34:08.492Z,22.2
2022-11-26T10:35:10.707Z,22.2
2022-11-26T10:36:12.641Z,22.2
2022-11-26T10:37:15.123Z,22.2
2022-11-26T10:38:17.081Z,22.2
2022-11-26T10:39:19.328Z,22.2
2022-11-26T10:40:21.579Z,22.2
2022-11-26T10:41:24.094Z,22.2
2022-11-26T10:42:26.316Z,22.2
2022-11-26T10:43:28.799Z,22.2
2022-11-26T10:44:31.022Z,22.2
2022-11-26T10:45:33.629Z,22.2
2022-11-26T10:46:36.485Z,22.2
2022-11-26T10:47:39.086Z,22.2
2022-11-26T10:48:42.073Z,22.2
2022-11-26T10:49:44.571Z,22.2
2022-11-26T10:50:49.157Z,22.2
2022-11-26T10:51:51.661Z,22.2
2022-11-26T10:52:54.158Z,22.2
2022-11-26T10:53:56.734Z,22.2
2022-11-26T10:54:59.267Z,22.2
2022-11-26T10:56:01.509Z,22.2
2022-11-26T10:57:03.145Z,22.2
2022-11-26T10:58:05.101Z,22.2
2022-11-26T10:59:07.621Z,22.2
2022-11-26T11:00:09.833Z,22.2
2022-11-26T11:01:12.192Z,22.2
2022-11-26T11:02:14.922Z,22.2
2022-11-26T11:03:17.256Z,22.2
2022-11-26T11:04:19.465Z,22.2
2022-11-26T11:05:21.672Z,22.2
2022-11-26T11:06:24.152Z,22.2
2022-11-26T11:07:26.615Z,22.2
2022-11-26T11:08:29.126Z,22.2
2022-11-26T11:09:31.391Z,22.2
2022-11-26T11:10:33.997Z,22.2
2022-11-26T11:11:36.244Z,22.2
2022-11-26T11:12:38.747Z,22.2
2022-11-26T11:13:41.254Z,22.2
2022-11-26T11:14:45.905Z,22.2
2022-11-26T11:15:49.289Z,22.2
2022-11-26T11:16:52.024Z,22.1
2022-11-26T11:17:53.884Z,22.2
2022-11-26T11:18:55.803Z,22.2
2022-11-26T11:19:58.454Z,22.2
2022-11-26T11:21:00.663Z,22.2
2022-11-26T11:22:02.881Z,22.2
2022-11-26T11:23:05.572Z,22.2
2022-11-26T11:24:10.198Z,22.2
2022-11-26T11:25:12.711Z,22.2
2022-11-26T11:26:15.238Z,22.2
2022-11-26T11:27:17.851Z,22.2
2022-11-26T11:28:20.060Z,22.2
2022-11-26T11:29:22.597Z,22.2
2022-11-26T11:30:25.214Z,22.2
2022-11-26T11:31:27.889Z,22.1
2022-11-26T11:32:30.180Z,22.1
2022-11-26T11:33:32.103Z,22.1
2022-11-26T11:34:34.585Z,22.2
2022-11-26T11:35:36.793Z,22.1
2022-11-26T11:36:39.017Z,22.2
2022-11-26T11:37:41.510Z,22.1
2022-11-26T11:38:43.714Z,22.2
2022-11-26T11:39:45.913Z,22.2
2022-11-26T11:40:48.152Z,22.2
2022-11-26T11:41:50.754Z,22.2
2022-11-26T11:42:53.256Z,22.2
2022-11-26T11:43:55.467Z,22.2
2022-11-26T11:44:57.984Z,22.2
2022-11-26T11:46:00.588Z,22.2
2022-11-26T11:47:03.245Z,22.2
2022-11-26T11:48:05.456Z,22.2
2022-11-26T11:49:07.950Z,22.2
2022-11-26T11:50:10.430Z,22.2
2022-11-26T11:51:12.379Z,22.2
2022-11-26T11:52:14.628Z,22.2
2022-11-26T11:53:16.824Z,22.2
2022-11-26T11:54:19.321Z,22.2
2022-11-26T11:55:21.802Z,22.2
2022-11-26T11:56:23.469Z,22.2
2022-11-26T11:57:26.002Z,22.2
2022-11-26T11:58:28.237Z,22.2
2022-11-26T11:59:30.463Z,22.2
2022-11-26T12:00:32.965Z,22.2
2022-11-26T12:01:35.702Z,22.2
2022-11-26T12:02:38.480Z,22.2
2022-11-26T12:03:40.688Z,22.2
2022-11-26T12:04:43.643Z,22.2
2022-11-26T12:05:46.318Z,22.2
2022-11-26T12:06:48.540Z,22.2
2022-11-26T12:07:50.344Z,22.2
2022-11-26T12:08:52.744Z,22.2
2022-11-26T12:09:54.957Z,22.2
2022-11-26T12:10:57.448Z,22.2
2022-11-26T12:11:59.981Z,22.2
2022-11-26T12:13:02.506Z,22.2
2022-11-26T12:14:04.728Z,22.2
2022-11-26T12:15:06.917Z,22.2
2022-11-26T12:16:09.365Z,22.2
2022-11-26T12:17:11.412Z,22.2
2022-11-26T12:18:13.627Z,22.2
2022-11-26T12:19:15.855Z,22.2
2022-11-26T12:20:18.113Z,22.2
2022-11-26T12:21:20.663Z,22.2
2022-11-26T12:22:22.906Z,22.2
2022-11-26T12:23:25.968Z,22.2
2022-11-26T12:24:28.448Z,22.2
2022-11-26T12:26:35.639Z,22.2
2022-11-26T12:27:38.187Z,22.2
2022-11-26T12:28:40.714Z,22.2
2022-11-26T12:29:42.955Z,22.2
2022-11-26T12:30:45.198Z,22.2
2022-11-26T12:31:47.687Z,22.2
2022-11-26T12:32:50.346Z,22.2
2022-11-26T12:33:52.281Z,22.2
2022-11-26T12:34:54.503Z,22.2
2022-11-26T12:35:56.719Z,22.2
2022-11-26T12:36:58.651Z,22.2
2022-11-26T12:38:00.577Z,22.2
2022-11-26T12:39:02.792Z,22.2
2022-11-26T12:40:05.278Z,22.2
2022-11-26T12:41:07.224Z,22.2
2022-11-26T12:42:09.137Z,22.2
2022-11-26T12:43:11.659Z,22.2
2022-11-26T12:44:14.202Z,22.2
2022-11-26T12:45:18.623Z,22.2
2022-11-26T12:46:21.301Z,22.2
2022-11-26T12:47:23.708Z,22.2
2022-11-26T12:48:26.259Z,22.2
2022-11-26T12:49:28.190Z,22.2
2022-11-26T12:50:30.181Z,22.2
2022-11-26T12:51:36.660Z,22.2
2022-11-26T12:52:38.884Z,22.2
2022-11-26T12:53:40.824Z,22.2
2022-11-26T12:54:42.931Z,22.2
2022-11-26T12:55:45.458Z,22.2
2022-11-26T12:56:47.678Z,22.2
2022-11-26T12:57:50.162Z,22.2
2022-11-26T12:58:52.674Z,22.2
2022-11-26T12:59:55.213Z,22.2
2022-11-26T13:00:57.923Z,22.2
2022-11-26T13:02:00.891Z,22.2
2022-11-26T13:03:03.313Z,22.2
2022-11-26T13:05:10.481Z,22.2
2022-11-26T13:06:13.027Z,22.2
2022-11-26T13:07:15.167Z,22.2
2022-11-26T13:08:17.230Z,22.2
2022-11-26T13:09:19.730Z,22.2
2022-11-26T13:10:21.646Z,22.2
2022-11-26T13:11:24.145Z,22.2
2022-11-26T13:12:26.626Z,22.2
2022-11-26T13:13:29.099Z,22.2
2022-11-26T13:14:31.030Z,22.2
2022-11-26T13:15:33.625Z,22.2
2022-11-26T13:16:36.172Z,22.2
2022-11-26T13:17:38.879Z,22.2
2022-11-26T13:18:41.388Z,22.2
2022-11-26T13:19:43.601Z,22.2
2022-11-26T13:20:45.851Z,22.2
2022-11-26T13:21:48.348Z,22.2
2022-11-26T13:22:50.547Z,22.2
2022-11-26T13:23:52.751Z,22.2
2022-11-26T13:24:55.231Z,22.2
2022-11-26T13:25:57.712Z,22.2
2022-11-26T13:28:34.250Z,22.2
2022-11-26T13:29:36.197Z,22.2
2022-11-26T13:30:38.446Z,22.2
2022-11-26T13:31:40.256Z,22.2
2022-11-26T13:32:42.945Z,22.2
2022-11-26T13:33:45.452Z,22.2
2022-11-26T13:34:47.949Z,22.2
2022-11-26T13:35:50.149Z,22.2
2022-11-26T13:36:52.647Z,22.2
2022-11-26T13:37:55.215Z,22.2
2022-11-26T13:38:57.225Z,22.2
2022-11-26T13:39:59.825Z,22.2
2022-11-26T13:41:02.309Z,22.2
2022-11-26T13:42:04.507Z,22.2
2022-11-26T13:43:06.719Z,22.2
2022-11-26T13:44:08.939Z,22.2
2022-11-26T13:45:11.161Z,22.2
2022-11-26T13:47:18.688Z,22.2
2022-11-26T13:48:20.897Z,22.2
2022-11-26T13:49:23.123Z,22.2
2022-11-26T13:50:25.343Z,22.2
2022-11-26T13:51:27.544Z,22.2
2022-11-26T13:52:30.038Z,22.2
2022-11-26T13:53:32.523Z,22.2
2022-11-26T13:54:34.721Z,22.2
2022-11-26T13:55:36.929Z,22.2
2022-11-26T13:56:39.402Z,22.2
2022-11-26T13:57:41.612Z,22.2
2022-11-26T13:58:43.512Z,22.2
2022-11-26T13:59:45.804Z,22.2
2022-11-26T14:00:48.525Z,22.2
2022-11-26T14:01:51.405Z,22.2
2022-11-26T14:02:54.008Z,22.2
2022-11-26T14:03:56.223Z,22.2
2022-11-26T14:04:58.725Z,22.2
2022-11-26T14:07:05.965Z,22.2